sensor_id;sensor_type;location;lat;lon;timestamp;temperature;humidity
27306;DHT22;14792;50.886;6.468;2022-08-02T00:02:06;15.70;99.90
27306;DHT22;14792;50.886;6.468;2022-08-02T00:05:08;15.80;99.90
27306;DHT22;14792;50.886;6.468;2022-08-02T00:08:10;15.90;99.90
27306;DHT22;14792;50.886;6.468;2022-08-02T00:11:11;16.00;99.90
27306;DHT22;14792;50.886;6.468;2022-08-02T00:14:13;16.10;99.90
27306;DHT22;14792;50.886;6.468;2022-08-02T00:17:15;16.10;99.90
27306;DHT22;14792;50.886;6.468;2022-08-02T00:20:16;16.00;99.90
27306;DHT22;14792;50.886;6.468;2022-08-02T00:23:18;15.90;99.90
27306;DHT22;14792;50.886;6.468;2022-08-02T00:26:19;15.80;99.90
27306;DHT22;14792;50.886;6.468;2022-08-02T00:29:21;15.80;99.90
27306;DHT22;14792;50.886;6.468;2022-08-02T00:32:22;15.80;99.90
27306;DHT22;14792;50.886;6.468;2022-08-02T00:35:24;15.80;99.90
27306;DHT22;14792;50.886;6.468;2022-08-02T00:38:26;15.90;99.90
27306;DHT22;14792;50.886;6.468;2022-08-02T00:41:27;15.80;99.90
27306;DHT22;14792;50.886;6.468;2022-08-02T00:44:29;15.80;99.90
27306;DHT22;14792;50.886;6.468;2022-08-02T00:47:30;15.80;99.90
27306;DHT22;14792;50.886;6.468;2022-08-02T00:50:32;15.90;99.90
27306;DHT22;14792;50.886;6.468;2022-08-02T00:53:34;15.80;99.90
27306;DHT22;14792;50.886;6.468;2022-08-02T00:56:35;15.80;99.90
27306;DHT22;14792;50.886;6.468;2022-08-02T00:59:37;15.70;99.90
27306;DHT22;14792;50.886;6.468;2022-08-02T01:02:38;15.70;99.90
27306;DHT22;14792;50.886;6.468;2022-08-02T01:05:40;15.60;99.90
27306;DHT22;14792;50.886;6.468;2022-08-02T01:08:42;15.60;99.90
27306;DHT22;14792;50.886;6.468;2022-08-02T01:11:43;15.60;99.90
27306;DHT22;14792;50.886;6.468;2022-08-02T01:14:51;15.60;99.90
27306;DHT22;14792;50.886;6.468;2022-08-02T01:28:26;15.70;99.90
27306;DHT22;14792;50.886;6.468;2022-08-02T01:31:37;15.70;99.90
27306;DHT22;14792;50.886;6.468;2022-08-02T01:34:45;15.80;99.90
27306;DHT22;14792;50.886;6.468;2022-08-02T01:37:52;15.70;99.90
27306;DHT22;14792;50.886;6.468;2022-08-02T01:40:52;15.70;99.90
27306;DHT22;14792;50.886;6.468;2022-08-02T01:43:55;15.60;99.90
27306;DHT22;14792;50.886;6.468;2022-08-02T01:46:56;15.80;99.90
27306;DHT22;14792;50.886;6.468;2022-08-02T01:49:57;15.80;99.90
27306;DHT22;14792;50.886;6.468;2022-08-02T01:53:01;15.80;99.90
27306;DHT22;14792;50.886;6.468;2022-08-02T01:56:00;15.70;99.90
27306;DHT22;14792;50.886;6.468;2022-08-02T01:59:02;15.60;99.90
27306;DHT22;14792;50.886;6.468;2022-08-02T02:02:03;15.60;99.90
27306;DHT22;14792;50.886;6.468;2022-08-02T02:05:05;15.70;99.90
27306;DHT22;14792;50.886;6.468;2022-08-02T02:08:07;15.60;99.90
27306;DHT22;14792;50.886;6.468;2022-08-02T02:11:08;15.40;99.90
27306;DHT22;14792;50.886;6.468;2022-08-02T02:14:10;15.20;99.90
27306;DHT22;14792;50.886;6.468;2022-08-02T02:17:11;15.10;99.90
27306;DHT22;14792;50.886;6.468;2022-08-02T02:20:14;15.00;99.90
27306;DHT22;14792;50.886;6.468;2022-08-02T02:23:14;15.10;99.90
27306;DHT22;14792;50.886;6.468;2022-08-02T02:26:16;15.20;99.90
27306;DHT22;14792;50.886;6.468;2022-08-02T02:29:19;15.20;99.90
27306;DHT22;14792;50.886;6.468;2022-08-02T02:32:19;15.20;99.90
27306;DHT22;14792;50.886;6.468;2022-08-02T02:35:21;15.30;99.90
27306;DHT22;14792;50.886;6.468;2022-08-02T02:38:22;15.20;99.90
27306;DHT22;14792;50.886;6.468;2022-08-02T02:41:24;15.20;99.90
27306;DHT22;14792;50.886;6.468;2022-08-02T02:44:25;15.20;99.90
27306;DHT22;14792;50.886;6.468;2022-08-02T02:47:27;15.30;99.90
27306;DHT22;14792;50.886;6.468;2022-08-02T02:50:29;15.30;99.90
27306;DHT22;14792;50.886;6.468;2022-08-02T02:53:30;15.30;99.90
27306;DHT22;14792;50.886;6.468;2022-08-02T02:56:32;15.30;99.90
27306;DHT22;14792;50.886;6.468;2022-08-02T02:59:34;15.20;99.90
27306;DHT22;14792;50.886;6.468;2022-08-02T03:02:39;15.20;99.90
27306;DHT22;14792;50.886;6.468;2022-08-02T03:05:40;15.20;99.90
27306;DHT22;14792;50.886;6.468;2022-08-02T03:08:42;15.20;99.90
27306;DHT22;14792;50.886;6.468;2022-08-02T03:11:43;15.20;99.90
27306;DHT22;14792;50.886;6.468;2022-08-02T03:14:45;15.20;99.90
27306;DHT22;14792;50.886;6.468;2022-08-02T03:17:46;15.20;99.90
27306;DHT22;14792;50.886;6.468;2022-08-02T03:20:48;15.20;99.90
27306;DHT22;14792;50.886;6.468;2022-08-02T03:23:49;15.20;99.90
27306;DHT22;14792;50.886;6.468;2022-08-02T03:26:51;15.20;99.90
27306;DHT22;14792;50.886;6.468;2022-08-02T03:29:52;15.20;99.90
27306;DHT22;14792;50.886;6.468;2022-08-02T03:32:54;15.20;99.90
27306;DHT22;14792;50.886;6.468;2022-08-02T03:35:57;15.30;99.90
27306;DHT22;14792;50.886;6.468;2022-08-02T03:38:58;15.30;99.90
27306;DHT22;14792;50.886;6.468;2022-08-02T03:41:59;15.30;99.90
27306;DHT22;14792;50.886;6.468;2022-08-02T03:45:01;15.40;99.90
27306;DHT22;14792;50.886;6.468;2022-08-02T03:48:02;15.40;99.90
27306;DHT22;14792;50.886;6.468;2022-08-02T03:51:04;15.50;99.90
27306;DHT22;14792;50.886;6.468;2022-08-02T03:54:05;15.50;99.90
27306;DHT22;14792;50.886;6.468;2022-08-02T03:57:07;15.50;99.90
27306;DHT22;14792;50.886;6.468;2022-08-02T04:00:10;15.60;99.90
27306;DHT22;14792;50.886;6.468;2022-08-02T04:03:10;15.60;99.90
27306;DHT22;14792;50.886;6.468;2022-08-02T04:06:12;15.60;99.90
27306;DHT22;14792;50.886;6.468;2022-08-02T04:09:13;15.60;99.90
27306;DHT22;14792;50.886;6.468;2022-08-02T04:12:15;15.60;99.90
27306;DHT22;14792;50.886;6.468;2022-08-02T04:15:17;15.50;99.90
27306;DHT22;14792;50.886;6.468;2022-08-02T04:18:18;15.40;99.90
27306;DHT22;14792;50.886;6.468;2022-08-02T04:21:20;15.40;99.90
27306;DHT22;14792;50.886;6.468;2022-08-02T04:24:25;15.40;99.90
27306;DHT22;14792;50.886;6.468;2022-08-02T04:27:23;15.40;99.90
27306;DHT22;14792;50.886;6.468;2022-08-02T04:30:25;15.40;99.90
27306;DHT22;14792;50.886;6.468;2022-08-02T04:33:26;15.40;99.90
27306;DHT22;14792;50.886;6.468;2022-08-02T04:36:28;15.40;99.90
27306;DHT22;14792;50.886;6.468;2022-08-02T04:39:29;15.50;99.90
27306;DHT22;14792;50.886;6.468;2022-08-02T04:42:31;15.40;99.90
27306;DHT22;14792;50.886;6.468;2022-08-02T04:45:33;15.30;99.90
27306;DHT22;14792;50.886;6.468;2022-08-02T04:48:34;15.20;99.90
27306;DHT22;14792;50.886;6.468;2022-08-02T04:51:37;15.10;99.90
27306;DHT22;14792;50.886;6.468;2022-08-02T04:54:37;15.20;99.90
27306;DHT22;14792;50.886;6.468;2022-08-02T04:57:39;15.30;99.90
27306;DHT22;14792;50.886;6.468;2022-08-02T05:00:55;15.40;99.90
27306;DHT22;14792;50.886;6.468;2022-08-02T05:03:57;15.50;99.90
27306;DHT22;14792;50.886;6.468;2022-08-02T05:06:59;15.60;99.90
27306;DHT22;14792;50.886;6.468;2022-08-02T05:10:00;15.70;99.90
27306;DHT22;14792;50.886;6.468;2022-08-02T05:13:02;15.80;99.90
27306;DHT22;14792;50.886;6.468;2022-08-02T05:16:03;15.90;99.90
27306;DHT22;14792;50.886;6.468;2022-08-02T05:19:05;16.10;99.90
27306;DHT22;14792;50.886;6.468;2022-08-02T05:22:07;16.20;99.90
27306;DHT22;14792;50.886;6.468;2022-08-02T05:25:08;16.30;99.90
27306;DHT22;14792;50.886;6.468;2022-08-02T05:28:10;16.50;99.90
27306;DHT22;14792;50.886;6.468;2022-08-02T05:31:12;16.70;99.90
27306;DHT22;14792;50.886;6.468;2022-08-02T05:34:13;16.80;99.90
27306;DHT22;14792;50.886;6.468;2022-08-02T05:37:15;16.90;99.90
27306;DHT22;14792;50.886;6.468;2022-08-02T05:40:16;17.00;99.90
27306;DHT22;14792;50.886;6.468;2022-08-02T05:43:18;17.10;99.90
27306;DHT22;14792;50.886;6.468;2022-08-02T05:46:19;17.20;99.90
27306;DHT22;14792;50.886;6.468;2022-08-02T05:49:21;17.30;99.90
27306;DHT22;14792;50.886;6.468;2022-08-02T05:52:25;17.40;99.90
27306;DHT22;14792;50.886;6.468;2022-08-02T05:55:28;17.60;99.90
27306;DHT22;14792;50.886;6.468;2022-08-02T06:01:38;17.80;99.90
27306;DHT22;14792;50.886;6.468;2022-08-02T06:04:45;17.80;99.90
27306;DHT22;14792;50.886;6.468;2022-08-02T06:07:44;18.00;99.90
27306;DHT22;14792;50.886;6.468;2022-08-02T06:10:45;18.10;99.90
27306;DHT22;14792;50.886;6.468;2022-08-02T06:13:47;18.20;99.90
27306;DHT22;14792;50.886;6.468;2022-08-02T06:16:49;18.20;99.90
27306;DHT22;14792;50.886;6.468;2022-08-02T06:19:52;18.40;99.90
27306;DHT22;14792;50.886;6.468;2022-08-02T06:22:52;18.40;99.90
27306;DHT22;14792;50.886;6.468;2022-08-02T06:25:55;18.50;99.90
27306;DHT22;14792;50.886;6.468;2022-08-02T06:28:56;18.60;99.90
27306;DHT22;14792;50.886;6.468;2022-08-02T06:31:57;18.70;99.90
27306;DHT22;14792;50.886;6.468;2022-08-02T06:34:59;18.90;99.90
27306;DHT22;14792;50.886;6.468;2022-08-02T06:38:00;19.10;99.90
27306;DHT22;14792;50.886;6.468;2022-08-02T06:41:06;19.20;99.90
27306;DHT22;14792;50.886;6.468;2022-08-02T06:44:06;19.40;99.90
27306;DHT22;14792;50.886;6.468;2022-08-02T06:47:08;19.60;99.90
27306;DHT22;14792;50.886;6.468;2022-08-02T06:50:09;19.80;99.90
27306;DHT22;14792;50.886;6.468;2022-08-02T06:53:11;20.00;99.90
27306;DHT22;14792;50.886;6.468;2022-08-02T06:56:13;20.30;99.90
27306;DHT22;14792;50.886;6.468;2022-08-02T06:59:14;20.50;99.90
27306;DHT22;14792;50.886;6.468;2022-08-02T07:02:16;20.90;99.90
27306;DHT22;14792;50.886;6.468;2022-08-02T07:05:17;21.10;99.90
27306;DHT22;14792;50.886;6.468;2022-08-02T07:08:19;21.20;99.90
27306;DHT22;14792;50.886;6.468;2022-08-02T07:11:21;21.40;99.90
27306;DHT22;14792;50.886;6.468;2022-08-02T07:14:22;21.50;99.90
27306;DHT22;14792;50.886;6.468;2022-08-02T07:17:24;21.70;99.90
27306;DHT22;14792;50.886;6.468;2022-08-02T07:20:25;22.10;99.90
27306;DHT22;14792;50.886;6.468;2022-08-02T07:23:27;22.50;99.90
27306;DHT22;14792;50.886;6.468;2022-08-02T07:26:29;22.80;99.90
27306;DHT22;14792;50.886;6.468;2022-08-02T07:29:30;23.20;99.90
27306;DHT22;14792;50.886;6.468;2022-08-02T07:32:32;23.30;99.90
27306;DHT22;14792;50.886;6.468;2022-08-02T07:35:34;23.30;99.90
27306;DHT22;14792;50.886;6.468;2022-08-02T07:38:36;23.60;99.90
27306;DHT22;14792;50.886;6.468;2022-08-02T07:41:37;23.90;99.90
27306;DHT22;14792;50.886;6.468;2022-08-02T07:44:38;24.10;99.90
27306;DHT22;14792;50.886;6.468;2022-08-02T07:47:40;24.30;99.90
27306;DHT22;14792;50.886;6.468;2022-08-02T07:50:41;24.60;99.90
27306;DHT22;14792;50.886;6.468;2022-08-02T07:53:43;25.00;99.90
27306;DHT22;14792;50.886;6.468;2022-08-02T07:56:45;25.30;99.90
27306;DHT22;14792;50.886;6.468;2022-08-02T07:59:46;25.60;99.90
27306;DHT22;14792;50.886;6.468;2022-08-02T08:02:48;25.90;99.90
27306;DHT22;14792;50.886;6.468;2022-08-02T08:05:49;26.10;99.90
27306;DHT22;14792;50.886;6.468;2022-08-02T08:08:51;26.10;99.90
27306;DHT22;14792;50.886;6.468;2022-08-02T08:11:53;26.20;99.90
27306;DHT22;14792;50.886;6.468;2022-08-02T08:14:54;26.60;99.90
27306;DHT22;14792;50.886;6.468;2022-08-02T08:17:56;27.00;99.90
27306;DHT22;14792;50.886;6.468;2022-08-02T08:20:58;27.20;99.90
27306;DHT22;14792;50.886;6.468;2022-08-02T08:23:59;26.80;99.90
27306;DHT22;14792;50.886;6.468;2022-08-02T08:27:02;27.00;99.90
27306;DHT22;14792;50.886;6.468;2022-08-02T08:30:02;26.80;99.90
27306;DHT22;14792;50.886;6.468;2022-08-02T08:33:04;26.90;99.90
27306;DHT22;14792;50.886;6.468;2022-08-02T08:36:06;27.00;99.90
27306;DHT22;14792;50.886;6.468;2022-08-02T08:39:07;27.10;99.90
27306;DHT22;14792;50.886;6.468;2022-08-02T08:42:09;27.30;99.90
27306;DHT22;14792;50.886;6.468;2022-08-02T08:45:13;27.20;99.90
27306;DHT22;14792;50.886;6.468;2022-08-02T08:48:15;27.20;99.90
27306;DHT22;14792;50.886;6.468;2022-08-02T08:51:18;27.80;99.90
27306;DHT22;14792;50.886;6.468;2022-08-02T08:54:18;27.80;99.90
27306;DHT22;14792;50.886;6.468;2022-08-02T08:57:19;27.90;99.90
27306;DHT22;14792;50.886;6.468;2022-08-02T09:00:21;27.70;99.90
27306;DHT22;14792;50.886;6.468;2022-08-02T09:03:23;28.20;99.90
27306;DHT22;14792;50.886;6.468;2022-08-02T09:06:25;28.20;99.90
27306;DHT22;14792;50.886;6.468;2022-08-02T09:09:26;28.20;99.90
27306;DHT22;14792;50.886;6.468;2022-08-02T09:12:28;28.30;99.90
27306;DHT22;14792;50.886;6.468;2022-08-02T09:15:30;28.50;99.90
27306;DHT22;14792;50.886;6.468;2022-08-02T09:18:35;27.90;99.90
27306;DHT22;14792;50.886;6.468;2022-08-02T09:21:36;27.60;99.90
27306;DHT22;14792;50.886;6.468;2022-08-02T09:24:47;27.90;99.90
27306;DHT22;14792;50.886;6.468;2022-08-02T09:27:48;28.00;99.90
27306;DHT22;14792;50.886;6.468;2022-08-02T09:30:49;27.90;99.90
27306;DHT22;14792;50.886;6.468;2022-08-02T09:33:51;27.90;99.90
27306;DHT22;14792;50.886;6.468;2022-08-02T09:36:52;28.00;99.90
27306;DHT22;14792;50.886;6.468;2022-08-02T09:39:54;27.90;99.90
27306;DHT22;14792;50.886;6.468;2022-08-02T09:42:58;27.90;99.90
27306;DHT22;14792;50.886;6.468;2022-08-02T09:46:09;27.70;99.90
27306;DHT22;14792;50.886;6.468;2022-08-02T09:49:11;28.00;99.90
27306;DHT22;14792;50.886;6.468;2022-08-02T09:52:13;28.20;99.90
27306;DHT22;14792;50.886;6.468;2022-08-02T09:55:14;28.30;99.90
27306;DHT22;14792;50.886;6.468;2022-08-02T09:58:19;28.20;99.90
27306;DHT22;14792;50.886;6.468;2022-08-02T10:01:25;28.50;99.90
27306;DHT22;14792;50.886;6.468;2022-08-02T10:04:22;28.30;99.90
27306;DHT22;14792;50.886;6.468;2022-08-02T10:07:23;28.10;99.90
27306;DHT22;14792;50.886;6.468;2022-08-02T10:10:25;28.00;99.90
27306;DHT22;14792;50.886;6.468;2022-08-02T10:13:30;27.60;99.90
27306;DHT22;14792;50.886;6.468;2022-08-02T10:16:35;27.50;99.90
27306;DHT22;14792;50.886;6.468;2022-08-02T10:19:36;27.60;99.90
27306;DHT22;14792;50.886;6.468;2022-08-02T10:22:37;27.70;99.90
27306;DHT22;14792;50.886;6.468;2022-08-02T10:25:39;27.60;99.90
27306;DHT22;14792;50.886;6.468;2022-08-02T10:28:40;27.60;99.90
27306;DHT22;14792;50.886;6.468;2022-08-02T10:32:04;27.90;99.90
27306;DHT22;14792;50.886;6.468;2022-08-02T10:35:12;27.90;99.90
27306;DHT22;14792;50.886;6.468;2022-08-02T10:38:10;27.70;99.90
27306;DHT22;14792;50.886;6.468;2022-08-02T10:41:12;27.90;99.90
27306;DHT22;14792;50.886;6.468;2022-08-02T10:44:26;27.50;99.90
27306;DHT22;14792;50.886;6.468;2022-08-02T10:47:28;27.60;99.90
27306;DHT22;14792;50.886;6.468;2022-08-02T10:54:06;27.80;99.90
27306;DHT22;14792;50.886;6.468;2022-08-02T10:56:53;27.70;99.90
27306;DHT22;14792;50.886;6.468;2022-08-02T11:00:08;27.70;99.90
27306;DHT22;14792;50.886;6.468;2022-08-02T11:03:04;27.70;99.90
27306;DHT22;14792;50.886;6.468;2022-08-02T11:06:12;27.80;99.90
27306;DHT22;14792;50.886;6.468;2022-08-02T11:09:27;27.70;99.90
27306;DHT22;14792;50.886;6.468;2022-08-02T11:12:26;28.00;99.90
27306;DHT22;14792;50.886;6.468;2022-08-02T11:15:28;28.00;99.90
27306;DHT22;14792;50.886;6.468;2022-08-02T11:22:05;27.90;99.90
27306;DHT22;14792;50.886;6.468;2022-08-02T11:28:25;28.10;99.90
27306;DHT22;14792;50.886;6.468;2022-08-02T11:31:27;28.20;99.90
27306;DHT22;14792;50.886;6.468;2022-08-02T11:34:29;28.00;99.90
27306;DHT22;14792;50.886;6.468;2022-08-02T11:37:33;28.50;99.90
27306;DHT22;14792;50.886;6.468;2022-08-02T11:40:35;28.90;99.90
27306;DHT22;14792;50.886;6.468;2022-08-02T11:43:36;28.60;99.90
27306;DHT22;14792;50.886;6.468;2022-08-02T11:46:37;28.70;99.90
27306;DHT22;14792;50.886;6.468;2022-08-02T11:49:38;28.70;99.90
27306;DHT22;14792;50.886;6.468;2022-08-02T11:52:40;28.70;99.90
27306;DHT22;14792;50.886;6.468;2022-08-02T11:55:42;28.70;99.90
27306;DHT22;14792;50.886;6.468;2022-08-02T11:59:08;28.70;99.90
27306;DHT22;14792;50.886;6.468;2022-08-02T12:02:06;28.40;99.90
27306;DHT22;14792;50.886;6.468;2022-08-02T12:05:07;28.30;99.90
27306;DHT22;14792;50.886;6.468;2022-08-02T12:08:09;28.40;99.90
27306;DHT22;14792;50.886;6.468;2022-08-02T12:11:11;28.40;99.90
27306;DHT22;14792;50.886;6.468;2022-08-02T12:14:12;28.40;99.90
27306;DHT22;14792;50.886;6.468;2022-08-02T12:17:21;28.60;99.90
27306;DHT22;14792;50.886;6.468;2022-08-02T12:20:36;28.40;99.90
27306;DHT22;14792;50.886;6.468;2022-08-02T12:23:48;28.40;99.90
27306;DHT22;14792;50.886;6.468;2022-08-02T12:26:43;28.10;99.90
27306;DHT22;14792;50.886;6.468;2022-08-02T12:29:44;28.20;99.90
27306;DHT22;14792;50.886;6.468;2022-08-02T12:32:45;28.50;99.90
27306;DHT22;14792;50.886;6.468;2022-08-02T12:35:47;28.70;99.90
27306;DHT22;14792;50.886;6.468;2022-08-02T12:38:58;28.80;99.90
27306;DHT22;14792;50.886;6.468;2022-08-02T12:41:56;28.60;99.90
27306;DHT22;14792;50.886;6.468;2022-08-02T12:44:58;28.90;99.90
27306;DHT22;14792;50.886;6.468;2022-08-02T12:47:59;28.90;99.90
27306;DHT22;14792;50.886;6.468;2022-08-02T12:54:21;28.70;99.90
27306;DHT22;14792;50.886;6.468;2022-08-02T12:57:22;28.60;99.90
27306;DHT22;14792;50.886;6.468;2022-08-02T13:00:30;28.50;99.90
27306;DHT22;14792;50.886;6.468;2022-08-02T13:03:31;28.60;99.90
27306;DHT22;14792;50.886;6.468;2022-08-02T13:06:32;28.80;99.90
27306;DHT22;14792;50.886;6.468;2022-08-02T13:09:38;28.70;99.90
27306;DHT22;14792;50.886;6.468;2022-08-02T13:12:36;28.70;99.90
27306;DHT22;14792;50.886;6.468;2022-08-02T13:15:37;29.00;99.90
27306;DHT22;14792;50.886;6.468;2022-08-02T13:18:39;29.00;99.90
27306;DHT22;14792;50.886;6.468;2022-08-02T13:21:41;29.20;99.90
27306;DHT22;14792;50.886;6.468;2022-08-02T13:24:42;29.50;99.90
27306;DHT22;14792;50.886;6.468;2022-08-02T13:27:43;29.70;99.90
27306;DHT22;14792;50.886;6.468;2022-08-02T13:30:45;29.80;99.90
27306;DHT22;14792;50.886;6.468;2022-08-02T13:33:46;29.80;99.90
27306;DHT22;14792;50.886;6.468;2022-08-02T13:36:48;29.80;99.90
27306;DHT22;14792;50.886;6.468;2022-08-02T13:39:49;29.70;99.90
27306;DHT22;14792;50.886;6.468;2022-08-02T13:42:50;30.00;99.90
27306;DHT22;14792;50.886;6.468;2022-08-02T13:45:52;30.10;99.90
27306;DHT22;14792;50.886;6.468;2022-08-02T13:48:54;29.90;99.90
27306;DHT22;14792;50.886;6.468;2022-08-02T13:51:55;30.10;99.90
27306;DHT22;14792;50.886;6.468;2022-08-02T13:54:57;30.20;99.90
27306;DHT22;14792;50.886;6.468;2022-08-02T13:57:59;30.30;99.90
27306;DHT22;14792;50.886;6.468;2022-08-02T14:01:00;30.40;99.90
27306;DHT22;14792;50.886;6.468;2022-08-02T14:04:02;30.40;99.60
27306;DHT22;14792;50.886;6.468;2022-08-02T14:07:03;30.70;99.40
27306;DHT22;14792;50.886;6.468;2022-08-02T14:10:05;30.60;99.90
27306;DHT22;14792;50.886;6.468;2022-08-02T14:13:06;30.80;99.90
27306;DHT22;14792;50.886;6.468;2022-08-02T14:16:08;30.50;99.70
27306;DHT22;14792;50.886;6.468;2022-08-02T14:19:09;30.70;99.30
27306;DHT22;14792;50.886;6.468;2022-08-02T14:22:10;30.70;99.30
27306;DHT22;14792;50.886;6.468;2022-08-02T14:25:12;30.90;98.80
27306;DHT22;14792;50.886;6.468;2022-08-02T14:28:13;30.80;99.70
27306;DHT22;14792;50.886;6.468;2022-08-02T14:31:14;30.80;98.60
27306;DHT22;14792;50.886;6.468;2022-08-02T14:34:16;30.80;98.10
27306;DHT22;14792;50.886;6.468;2022-08-02T14:37:17;31.00;99.90
27306;DHT22;14792;50.886;6.468;2022-08-02T14:40:19;31.20;99.10
27306;DHT22;14792;50.886;6.468;2022-08-02T14:43:20;31.40;98.20
27306;DHT22;14792;50.886;6.468;2022-08-02T14:46:40;31.30;98.70
27306;DHT22;14792;50.886;6.468;2022-08-02T14:49:41;31.20;97.60
27306;DHT22;14792;50.886;6.468;2022-08-02T14:52:43;31.00;96.90
27306;DHT22;14792;50.886;6.468;2022-08-02T14:55:44;31.20;99.40
27306;DHT22;14792;50.886;6.468;2022-08-02T14:58:45;31.00;97.30
27306;DHT22;14792;50.886;6.468;2022-08-02T15:01:47;31.20;95.60
27306;DHT22;14792;50.886;6.468;2022-08-02T15:04:48;31.30;96.40
27306;DHT22;14792;50.886;6.468;2022-08-02T15:07:49;31.30;97.30
27306;DHT22;14792;50.886;6.468;2022-08-02T15:10:51;31.10;95.00
27306;DHT22;14792;50.886;6.468;2022-08-02T15:13:52;31.20;97.90
27306;DHT22;14792;50.886;6.468;2022-08-02T15:16:54;31.00;95.30
27306;DHT22;14792;50.886;6.468;2022-08-02T15:19:55;31.10;97.20
27306;DHT22;14792;50.886;6.468;2022-08-02T15:22:57;31.20;96.60
27306;DHT22;14792;50.886;6.468;2022-08-02T15:25:58;31.30;95.60
27306;DHT22;14792;50.886;6.468;2022-08-02T15:29:00;31.30;96.30
27306;DHT22;14792;50.886;6.468;2022-08-02T15:32:01;30.80;97.30
27306;DHT22;14792;50.886;6.468;2022-08-02T15:35:03;30.90;96.30
27306;DHT22;14792;50.886;6.468;2022-08-02T15:38:04;31.40;97.90
27306;DHT22;14792;50.886;6.468;2022-08-02T15:41:06;31.30;96.30
27306;DHT22;14792;50.886;6.468;2022-08-02T15:44:07;31.30;96.10
27306;DHT22;14792;50.886;6.468;2022-08-02T15:47:08;31.30;99.90
27306;DHT22;14792;50.886;6.468;2022-08-02T15:50:10;31.40;96.30
27306;DHT22;14792;50.886;6.468;2022-08-02T15:53:11;31.10;97.30
27306;DHT22;14792;50.886;6.468;2022-08-02T15:56:12;31.10;97.30
27306;DHT22;14792;50.886;6.468;2022-08-02T15:59:14;31.30;96.70
27306;DHT22;14792;50.886;6.468;2022-08-02T16:02:16;31.30;96.80
27306;DHT22;14792;50.886;6.468;2022-08-02T16:05:17;31.30;96.10
27306;DHT22;14792;50.886;6.468;2022-08-02T16:08:19;31.20;97.10
27306;DHT22;14792;50.886;6.468;2022-08-02T16:11:20;31.00;98.20
27306;DHT22;14792;50.886;6.468;2022-08-02T16:14:21;31.00;96.30
27306;DHT22;14792;50.886;6.468;2022-08-02T16:17:23;31.00;97.10
27306;DHT22;14792;50.886;6.468;2022-08-02T16:20:24;30.80;97.50
27306;DHT22;14792;50.886;6.468;2022-08-02T16:23:25;30.80;98.10
27306;DHT22;14792;50.886;6.468;2022-08-02T16:26:27;30.70;97.20
27306;DHT22;14792;50.886;6.468;2022-08-02T16:29:28;30.60;98.10
27306;DHT22;14792;50.886;6.468;2022-08-02T16:32:30;30.60;96.50
27306;DHT22;14792;50.886;6.468;2022-08-02T16:35:32;30.70;97.60
27306;DHT22;14792;50.886;6.468;2022-08-02T16:38:33;30.70;98.80
27306;DHT22;14792;50.886;6.468;2022-08-02T16:41:34;30.60;97.50
27306;DHT22;14792;50.886;6.468;2022-08-02T16:44:36;30.30;97.30
27306;DHT22;14792;50.886;6.468;2022-08-02T16:47:37;30.50;97.70
27306;DHT22;14792;50.886;6.468;2022-08-02T16:50:39;30.50;97.60
27306;DHT22;14792;50.886;6.468;2022-08-02T16:53:40;30.20;97.50
27306;DHT22;14792;50.886;6.468;2022-08-02T16:56:42;30.40;97.80
27306;DHT22;14792;50.886;6.468;2022-08-02T16:59:43;30.30;97.40
27306;DHT22;14792;50.886;6.468;2022-08-02T17:02:45;30.30;97.10
27306;DHT22;14792;50.886;6.468;2022-08-02T17:05:47;30.20;97.60
27306;DHT22;14792;50.886;6.468;2022-08-02T17:08:48;30.00;97.00
27306;DHT22;14792;50.886;6.468;2022-08-02T17:11:50;29.90;97.10
27306;DHT22;14792;50.886;6.468;2022-08-02T17:14:52;29.80;96.90
27306;DHT22;14792;50.886;6.468;2022-08-02T17:17:53;29.60;97.20
27306;DHT22;14792;50.886;6.468;2022-08-02T17:20:55;29.60;97.00
27306;DHT22;14792;50.886;6.468;2022-08-02T17:23:56;29.50;97.90
27306;DHT22;14792;50.886;6.468;2022-08-02T17:26:58;29.50;97.60
27306;DHT22;14792;50.886;6.468;2022-08-02T17:29:59;29.50;97.80
27306;DHT22;14792;50.886;6.468;2022-08-02T17:33:01;29.50;97.30
27306;DHT22;14792;50.886;6.468;2022-08-02T17:36:03;29.30;97.80
27306;DHT22;14792;50.886;6.468;2022-08-02T17:39:05;29.30;97.60
27306;DHT22;14792;50.886;6.468;2022-08-02T17:42:06;29.20;97.00
27306;DHT22;14792;50.886;6.468;2022-08-02T17:45:08;29.10;97.60
27306;DHT22;14792;50.886;6.468;2022-08-02T17:48:09;28.90;97.50
27306;DHT22;14792;50.886;6.468;2022-08-02T17:51:11;28.90;98.60
27306;DHT22;14792;50.886;6.468;2022-08-02T17:54:12;28.80;97.80
27306;DHT22;14792;50.886;6.468;2022-08-02T17:57:14;28.70;97.70
27306;DHT22;14792;50.886;6.468;2022-08-02T18:00:15;28.70;98.30
27306;DHT22;14792;50.886;6.468;2022-08-02T18:03:17;28.60;98.30
27306;DHT22;14792;50.886;6.468;2022-08-02T18:06:18;28.50;97.90
27306;DHT22;14792;50.886;6.468;2022-08-02T18:09:20;28.40;98.10
27306;DHT22;14792;50.886;6.468;2022-08-02T18:12:21;28.40;98.30
27306;DHT22;14792;50.886;6.468;2022-08-02T18:15:23;28.30;98.10
27306;DHT22;14792;50.886;6.468;2022-08-02T18:18:24;28.20;98.40
27306;DHT22;14792;50.886;6.468;2022-08-02T18:21:29;28.10;99.00
27306;DHT22;14792;50.886;6.468;2022-08-02T18:24:30;28.00;98.90
27306;DHT22;14792;50.886;6.468;2022-08-02T18:27:32;27.90;99.10
27306;DHT22;14792;50.886;6.468;2022-08-02T18:30:34;27.90;99.70
27306;DHT22;14792;50.886;6.468;2022-08-02T18:33:36;27.70;99.20
27306;DHT22;14792;50.886;6.468;2022-08-02T18:36:37;27.70;99.80
27306;DHT22;14792;50.886;6.468;2022-08-02T18:39:39;27.60;99.50
27306;DHT22;14792;50.886;6.468;2022-08-02T18:42:41;27.60;99.90
27306;DHT22;14792;50.886;6.468;2022-08-02T18:45:42;27.50;99.80
27306;DHT22;14792;50.886;6.468;2022-08-02T18:48:44;27.40;99.90
27306;DHT22;14792;50.886;6.468;2022-08-02T18:51:45;27.30;99.90
27306;DHT22;14792;50.886;6.468;2022-08-02T18:54:47;27.20;99.90
27306;DHT22;14792;50.886;6.468;2022-08-02T18:57:49;27.10;99.90
27306;DHT22;14792;50.886;6.468;2022-08-02T19:00:50;27.10;99.90
27306;DHT22;14792;50.886;6.468;2022-08-02T19:03:52;26.90;99.90
27306;DHT22;14792;50.886;6.468;2022-08-02T19:06:54;26.90;99.90
27306;DHT22;14792;50.886;6.468;2022-08-02T19:09:55;26.70;99.90
27306;DHT22;14792;50.886;6.468;2022-08-02T19:12:57;26.70;99.90
27306;DHT22;14792;50.886;6.468;2022-08-02T19:15:58;26.50;99.90
27306;DHT22;14792;50.886;6.468;2022-08-02T19:19:00;26.40;99.90
27306;DHT22;14792;50.886;6.468;2022-08-02T19:22:01;26.30;99.90
27306;DHT22;14792;50.886;6.468;2022-08-02T19:25:03;26.20;99.90
27306;DHT22;14792;50.886;6.468;2022-08-02T19:28:05;26.00;99.90
27306;DHT22;14792;50.886;6.468;2022-08-02T19:31:06;25.90;99.90
27306;DHT22;14792;50.886;6.468;2022-08-02T19:34:08;25.80;99.90
27306;DHT22;14792;50.886;6.468;2022-08-02T19:37:09;25.80;99.90